createdAt,value
2023-02-24T00:02:15.305Z,99035.31
2023-02-24T00:04:44.210Z,99030.31
2023-02-24T00:07:14.313Z,99026.97
2023-02-24T00:09:44.674Z,99026.13
2023-02-24T00:12:17.049Z,99026.97
2023-02-24T00:14:47.022Z,99017.66
2023-02-24T00:17:15.897Z,99026.22
2023-02-24T00:19:46.518Z,99016.03
2023-02-24T00:22:16.685Z,99014.38
2023-02-24T00:24:46.464Z,99008.47
2023-02-24T00:27:15.447Z,99012.78
2023-02-24T00:29:47.800Z,99016.13
2023-02-24T00:32:17.185Z,98996.59
2023-02-24T00:34:46.469Z,98990.69
2023-02-24T00:37:16.550Z,98992.44
2023-02-24T00:39:46.770Z,98980.47
2023-02-24T00:42:15.579Z,98989.91
2023-02-24T00:44:47.925Z,98985.69
2023-02-24T00:47:18.703Z,98979.75
2023-02-24T00:49:48.458Z,98981.50
2023-02-24T00:52:21.458Z,98984.06
2023-02-24T00:54:51.367Z,98984.97
2023-02-24T00:57:21.593Z,98981.63
2023-02-24T00:59:52.998Z,98978.22
2023-02-24T01:02:21.767Z,98982.53
2023-02-24T01:04:51.155Z,98971.50
2023-02-24T01:07:21.936Z,98971.63
2023-02-24T01:09:52.372Z,98968.25
2023-02-24T01:12:38.798Z,98958.03
2023-02-24T01:15:11.250Z,98961.47
2023-02-24T01:17:41.426Z,98951.25
2023-02-24T01:20:18.050Z,98953.91
2023-02-24T01:22:50.697Z,98949.75
2023-02-24T01:25:20.716Z,98945.56
2023-02-24T01:27:49.874Z,98947.41
2023-02-24T01:30:18.829Z,98946.47
2023-02-24T01:32:48.686Z,98946.59
2023-02-24T01:35:18.097Z,98943.25
2023-02-24T01:37:48.150Z,98944.16
2023-02-24T01:40:21.102Z,98944.16
2023-02-24T01:42:51.122Z,98948.44
2023-02-24T01:45:26.542Z,98933.94
2023-02-24T01:47:58.790Z,98933.09
2023-02-24T01:50:29.372Z,98939.03
2023-02-24T01:53:04.192Z,98932.31
2023-02-24T01:55:38.284Z,98938.22
2023-02-24T01:58:12.936Z,98935.75
2023-02-24T02:00:47.191Z,98931.50
2023-02-24T02:03:25.364Z,98930.78
2023-02-24T02:05:56.264Z,98932.53
2023-02-24T02:08:27.286Z,98922.31
2023-02-24T02:10:59.031Z,98925.78
2023-02-24T02:13:30.081Z,98914.84
2023-02-24T02:16:15.134Z,98919.94
2023-02-24T02:18:57.643Z,98908.94
2023-02-24T02:22:05.817Z,98910.81
2023-02-24T02:24:54.252Z,98920.19
2023-02-24T02:28:10.269Z,98906.59
2023-02-24T02:31:23.527Z,98905.88
2023-02-24T02:34:30.589Z,98906.72
2023-02-24T02:37:08.695Z,98899.88
2023-02-24T02:39:50.738Z,98899.06
2023-02-24T02:42:30.204Z,98897.19
2023-02-24T02:45:08.726Z,98907.41
2023-02-24T02:47:44.138Z,98900.59
2023-02-24T02:50:21.506Z,98898.84
2023-02-24T02:52:55.219Z,98881.06
2023-02-24T02:55:33.487Z,98880.25
2023-02-24T02:58:04.793Z,98881.06
2023-02-24T03:00:37.766Z,98875.06
2023-02-24T03:03:13.653Z,98866.66
2023-02-24T03:05:51.781Z,98870.13
2023-02-24T03:08:26.692Z,98870.13
2023-02-24T03:11:00.468Z,98868.53
2023-02-24T03:13:36.906Z,98871.91
2023-02-24T03:16:07.579Z,98870.25
2023-02-24T03:18:44.748Z,98877.00
2023-02-24T03:21:19.197Z,98866.78
2023-02-24T03:23:51.956Z,98874.56
2023-02-24T03:26:28.729Z,98868.63
2023-02-24T03:29:07.319Z,98865.25
2023-02-24T03:31:46.041Z,98866.06
2023-02-24T03:34:20.929Z,98864.47
2023-02-24T03:36:51.183Z,98867.00
2023-02-24T03:39:19.985Z,98859.34
2023-02-24T03:42:15.901Z,98852.50
2023-02-24T03:44:45.561Z,98852.50
2023-02-24T03:47:15.995Z,98851.69
2023-02-24T03:49:45.439Z,98844.94
2023-02-24T03:52:29.760Z,98845.75
2023-02-24T03:55:19.153Z,98838.22
2023-02-24T03:58:03.792Z,98846.78
2023-02-24T04:00:44.796Z,98840.06
2023-02-24T04:03:25.786Z,98840.88
2023-02-24T04:06:12.456Z,98829.94
2023-02-24T04:08:52.157Z,98834.25
2023-02-24T04:11:29.352Z,98837.59
2023-02-24T04:14:06.616Z,98831.69
2023-02-24T04:16:43.377Z,98831.69
2023-02-24T04:19:16.869Z,98832.63
2023-02-24T04:21:49.661Z,98844.56
2023-02-24T04:24:31.689Z,98833.56
2023-02-24T04:27:03.435Z,98831.00
2023-02-24T04:29:47.230Z,98833.56
2023-02-24T04:32:24.132Z,98820.81
2023-02-24T04:34:53.097Z,98814.88
2023-02-24T04:37:23.245Z,98818.25
2023-02-24T04:39:53.632Z,98813.22
2023-02-24T04:42:29.081Z,98805.56
2023-02-24T04:44:58.730Z,98806.41
2023-02-24T04:47:28.965Z,98803.97
2023-02-24T04:49:57.707Z,98803.97
2023-02-24T04:52:26.401Z,98798.03
2023-02-24T04:54:56.583Z,98801.53
2023-02-24T04:57:25.827Z,98798.97
2023-02-24T04:59:54.983Z,98784.56
2023-02-24T05:02:23.784Z,98780.38
2023-02-24T05:04:52.728Z,98774.59
2023-02-24T05:07:22.658Z,98772.03
2023-02-24T05:09:51.390Z,98776.44
2023-02-24T05:12:21.425Z,98777.34
2023-02-24T05:14:50.064Z,98774.78
2023-02-24T05:17:18.920Z,98765.50
2023-02-24T05:20:05.107Z,98762.94
2023-02-24T05:22:33.823Z,98748.69
2023-02-24T05:25:03.651Z,98747.06
2023-02-24T05:27:37.462Z,98743.78
2023-02-24T05:30:09.913Z,98743.00
2023-02-24T05:32:39.174Z,98736.25
2023-02-24T05:35:10.820Z,98736.25
2023-02-24T05:37:42.664Z,98742.28
2023-02-24T05:40:14.872Z,98733.00
2023-02-24T05:42:45.384Z,98731.25
2023-02-24T05:45:14.050Z,98729.50
2023-02-24T05:47:46.514Z,98728.72
2023-02-24T05:50:15.993Z,98727.91
2023-02-24T05:52:45.935Z,98714.31
2023-02-24T05:55:15.983Z,98727.06
2023-02-24T05:57:46.314Z,98727.06
2023-02-24T06:00:16.626Z,98713.53
2023-02-24T06:02:49.676Z,98716.06
2023-02-24T06:05:33.420Z,98710.16
2023-02-24T06:08:06.351Z,98715.28
2023-02-24T06:10:35.340Z,98711.88
2023-02-24T06:13:06.948Z,98710.97
2023-02-24T06:15:35.618Z,98710.97
2023-02-24T06:18:04.439Z,98711.88
2023-02-24T06:20:33.580Z,98722.09
2023-02-24T06:23:04.476Z,98710.16
2023-02-24T06:25:33.432Z,98709.22
2023-02-24T06:28:02.191Z,98709.22
2023-02-24T06:30:32.940Z,98716.06
2023-02-24T06:33:01.953Z,98725.47
2023-02-24T06:35:33.013Z,98716.06
2023-02-24T06:38:01.644Z,98709.34
2023-02-24T06:40:31.613Z,98712.78
2023-02-24T06:43:00.329Z,98706.91
2023-02-24T06:45:30.561Z,98706.09
2023-02-24T06:48:00.811Z,98702.81
2023-02-24T06:50:29.479Z,98702.81
2023-02-24T06:53:00.932Z,98715.59
2023-02-24T06:55:29.948Z,98718.13
2023-02-24T06:58:04.725Z,98715.47
2023-02-24T07:00:39.032Z,98718.03
2023-02-24T07:03:17.154Z,98719.78
2023-02-24T07:05:54.188Z,98718.84
2023-02-24T07:08:25.257Z,98716.31
2023-02-24T07:10:56.066Z,98723.00
2023-02-24T07:13:26.022Z,98722.22
2023-02-24T07:15:55.062Z,98721.41
2023-02-24T07:18:26.736Z,98707.81
2023-02-24T07:20:55.408Z,98720.44
2023-02-24T07:23:24.060Z,98713.53
2023-02-24T07:25:53.500Z,98708.53
2023-02-24T07:28:22.941Z,98711.09
2023-02-24T07:30:52.667Z,98719.53
2023-02-24T07:33:23.253Z,98706.66
2023-02-24T07:35:54.036Z,98702.41
2023-02-24T07:38:23.096Z,98701.56
2023-02-24T07:40:52.360Z,98709.09
2023-02-24T07:43:21.394Z,98701.44
2023-02-24T07:45:50.100Z,98704.81
2023-02-24T07:48:18.775Z,98700.53
2023-02-24T07:50:47.996Z,98697.28
2023-02-24T07:53:19.106Z,98703.44
2023-02-24T07:55:47.789Z,98706.91
2023-02-24T07:58:18.416Z,98706.09
2023-02-24T08:01:00.912Z,98701.00
2023-02-24T08:03:30.545Z,98695.06
2023-02-24T08:06:12.983Z,98700.88
2023-02-24T08:08:59.014Z,98688.91
2023-02-24T08:11:35.682Z,98688.13
2023-02-24T08:14:10.952Z,98683.81
2023-02-24T08:16:40.783Z,98686.38
2023-02-24T08:19:13.347Z,98678.03
2023-02-24T08:21:47.434Z,98669.66
2023-02-24T08:24:20.132Z,98665.38
2023-02-24T08:27:05.111Z,98671.97
2023-02-24T08:29:40.357Z,98665.16
2023-02-24T08:32:10.527Z,98662.38
2023-02-24T08:34:40.393Z,98651.94
2023-02-24T08:37:08.964Z,98655.19
2023-02-24T08:39:38.981Z,98651.38
2023-02-24T08:42:07.734Z,98638.38
2023-02-24T08:44:37.350Z,98641.63
2023-02-24T08:47:07.575Z,98641.41
2023-02-24T08:49:36.211Z,98641.16
2023-02-24T08:52:07.300Z,98643.50
2023-02-24T08:54:48.046Z,98645.03
2023-02-24T08:57:18.402Z,98643.16
2023-02-24T08:59:51.078Z,98640.47
2023-02-24T09:02:27.454Z,98640.25
2023-02-24T09:04:59.495Z,98634.94
2023-02-24T09:07:35.364Z,98632.94
2023-02-24T09:10:05.837Z,98620.06
2023-02-24T09:12:41.267Z,98629.94
2023-02-24T09:15:15.473Z,98622.84
2023-02-24T09:18:01.353Z,98621.78
2023-02-24T09:20:47.243Z,98618.09
2023-02-24T09:23:20.134Z,98616.97
2023-02-24T09:25:54.426Z,98611.63
2023-02-24T09:28:26.840Z,98608.69
2023-02-24T09:30:58.781Z,98603.13
2023-02-24T09:33:29.818Z,98608.69
2023-02-24T09:36:09.929Z,98596.47
2023-02-24T09:41:57.648Z,98583.91
2023-02-24T09:44:34.350Z,98578.47
2023-02-24T09:47:14.119Z,98567.88
2023-02-24T09:49:56.398Z,98575.16
2023-02-24T09:52:39.847Z,98562.81
2023-02-24T09:55:26.096Z,98563.97
2023-02-24T09:58:29.366Z,98560.13
2023-02-24T10:01:33.637Z,98561.50
2023-02-24T10:04:21.812Z,98555.31
2023-02-24T10:06:52.623Z,98556.84
2023-02-24T10:09:27.754Z,98549.84
2023-02-24T10:12:04.531Z,98537.97
2023-02-24T10:14:52.977Z,98546.59
2023-02-24T10:17:40.149Z,98542.28
2023-02-24T10:20:31.036Z,98538.09
2023-02-24T10:23:09.735Z,98537.44
2023-02-24T10:25:53.968Z,98535.81
2023-02-24T10:28:36.028Z,98537.66
2023-02-24T10:31:25.476Z,98530.94
2023-02-24T10:34:00.925Z,98537.09
2023-02-24T10:36:36.300Z,98529.56
2023-02-24T10:39:17.023Z,98528.75
2023-02-24T10:41:49.334Z,98524.56
2023-02-24T10:44:26.088Z,98520.28
2023-02-24T10:47:12.530Z,98508.28
2023-02-24T10:49:57.266Z,98508.28
2023-02-24T10:52:37.130Z,98508.41
2023-02-24T10:55:28.428Z,98504.22
2023-02-24T10:58:07.663Z,98506.78
2023-02-24T11:01:01.128Z,98489.72
2023-02-24T11:03:42.269Z,98483.78
2023-02-24T11:06:47.909Z,98489.72
2023-02-24T11:09:32.265Z,98486.34
2023-02-24T11:12:24.856Z,98467.50
2023-02-24T11:15:14.373Z,98461.72
2023-02-24T11:17:50.948Z,98462.53
2023-02-24T11:20:48.560Z,98461.47
2023-02-24T11:23:23.666Z,98450.41
2023-02-24T11:25:58.346Z,98439.25
2023-02-24T11:28:59.712Z,98436.72
2023-02-24T11:31:45.375Z,98419.75
2023-02-24T11:34:24.902Z,98424.06
2023-02-24T11:37:04.677Z,98417.19
2023-02-24T11:39:53.136Z,98412.19
2023-02-24T11:42:28.079Z,98408.97
2023-02-24T11:45:04.115Z,98404.66
2023-02-24T11:47:40.396Z,98395.38
2023-02-24T11:50:30.694Z,98391.22
2023-02-24T11:53:04.811Z,98392.94
2023-02-24T11:55:39.491Z,98387.97
2023-02-24T11:58:18.573Z,98378.66
2023-02-24T12:00:56.137Z,98378.66
2023-02-24T12:03:36.707Z,98373.56
2023-02-24T12:06:17.418Z,98365.09
2023-02-24T12:08:52.739Z,98365.09
2023-02-24T12:11:35.644Z,98359.19
2023-02-24T12:14:19.082Z,98342.22
2023-02-24T12:16:54.276Z,98348.13
2023-02-24T12:19:30.308Z,98336.16
2023-02-24T12:22:06.024Z,98334.41
2023-02-24T12:24:37.101Z,98326.88
2023-02-24T12:27:21.256Z,98322.69
2023-02-24T12:30:23.155Z,98320.13
2023-02-24T12:33:08.531Z,98318.66
2023-02-24T12:35:49.268Z,98316.09
2023-02-24T12:38:35.855Z,98312.88
2023-02-24T12:41:20.927Z,98314.47
2023-02-24T12:44:01.400Z,98305.19
2023-02-24T12:46:34.834Z,98301.69
2023-02-24T12:49:27.541Z,98294.00
2023-02-24T12:52:10.239Z,98288.91
2023-02-24T12:54:48.633Z,98286.34
2023-02-24T12:57:26.746Z,98284.63
2023-02-24T12:59:58.252Z,98276.03
2023-02-24T13:02:40.878Z,98273.22
2023-02-24T13:05:20.844Z,98268.75
2023-02-24T13:08:12.575Z,98253.31
2023-02-24T13:10:48.691Z,98246.31
2023-02-24T13:13:28.872Z,98242.81
2023-02-24T13:16:01.258Z,98237.59
2023-02-24T13:18:31.996Z,98228.16
2023-02-24T13:21:10.719Z,98231.41
2023-02-24T13:23:43.659Z,98221.97
2023-02-24T13:26:12.419Z,98218.34
2023-02-24T13:28:41.171Z,98210.56
2023-02-24T13:31:14.030Z,98207.75
2023-02-24T13:33:45.281Z,98204.22
2023-02-24T13:36:21.627Z,98195.50
2023-02-24T13:38:52.852Z,98199.69
2023-02-24T13:41:38.322Z,98195.38
2023-02-24T13:44:26.511Z,98199.69
2023-02-24T13:47:35.215Z,98192.94
2023-02-24T13:50:25.496Z,98192.16
2023-02-24T13:53:26.731Z,98178.53
2023-02-24T13:56:12.323Z,98181.09
2023-02-24T13:59:07.220Z,98179.38
2023-02-24T14:01:50.790Z,98171.56
2023-02-24T14:04:27.846Z,98166.44
2023-02-24T14:07:02.562Z,98180.16
2023-02-24T14:09:34.848Z,98173.19
2023-02-24T14:12:14.315Z,98166.44
2023-02-24T14:14:44.842Z,98164.69
2023-02-24T14:17:25.362Z,98158.78
2023-02-24T14:19:56.962Z,98156.22
2023-02-24T14:22:25.920Z,98152.03
2023-02-24T14:25:03.641Z,98146.91
2023-02-24T14:27:32.997Z,98142.75
2023-02-24T14:30:01.756Z,98134.41
2023-02-24T14:32:30.679Z,98131.84
2023-02-24T14:35:01.048Z,98128.50
2023-02-24T14:37:33.039Z,98135.34
2023-02-24T14:40:05.927Z,98134.56
2023-02-24T14:42:36.325Z,98127.03
2023-02-24T14:45:19.007Z,98126.19
2023-02-24T14:47:47.729Z,98117.72
2023-02-24T14:50:21.359Z,98122.97
2023-02-24T14:52:53.341Z,98117.88
2023-02-24T14:55:24.665Z,98110.34
2023-02-24T14:58:00.222Z,98117.88
2023-02-24T15:00:33.882Z,98114.63
2023-02-24T15:03:08.820Z,98105.31
2023-02-24T15:05:44.641Z,98105.47
2023-02-24T15:08:31.170Z,98103.88
2023-02-24T15:11:00.287Z,98105.59
2023-02-24T15:13:37.306Z,98096.31
2023-02-24T15:16:14.463Z,98102.25
2023-02-24T15:18:43.965Z,98101.44
2023-02-24T15:21:23.643Z,98090.41
2023-02-24T15:24:01.235Z,98088.78
2023-02-24T15:26:32.943Z,98082.06
2023-02-24T15:29:05.222Z,98082.19
2023-02-24T15:31:33.938Z,98078.84
2023-02-24T15:34:03.817Z,98077.22
2023-02-24T15:36:37.285Z,98080.72
2023-02-24T15:39:10.756Z,98070.75
2023-02-24T15:41:42.161Z,98066.56
2023-02-24T15:44:27.528Z,98065.91
2023-02-24T15:46:57.266Z,98060.00
2023-02-24T15:49:26.104Z,98056.63
2023-02-24T15:51:59.710Z,98064.56
2023-02-24T15:54:33.480Z,98062.94
2023-02-24T15:57:05.361Z,98051.09
2023-02-24T15:59:34.211Z,98048.69
2023-02-24T16:02:03.981Z,98051.38
2023-02-24T16:04:32.753Z,98046.28
2023-02-24T16:07:02.930Z,98051.53
2023-02-24T16:09:36.404Z,98052.31
2023-02-24T16:12:09.643Z,98054.22
2023-02-24T16:14:39.195Z,98050.03
2023-02-24T16:17:20.364Z,98042.50
2023-02-24T16:19:49.004Z,98035.13
2023-02-24T16:22:19.181Z,98041.16
2023-02-24T16:24:47.801Z,98046.25
2023-02-24T16:27:18.510Z,98038.75
2023-02-24T16:29:49.670Z,98036.31
2023-02-24T16:32:18.590Z,98040.59
2023-02-24T16:34:47.331Z,98038.19
2023-02-24T16:37:22.943Z,98042.50
2023-02-24T16:39:51.883Z,98041.81
2023-02-24T16:42:21.919Z,98041.16
2023-02-24T16:44:51.732Z,98038.59
2023-02-24T16:47:24.376Z,98038.59
2023-02-24T16:49:57.711Z,98044.78
2023-02-24T16:52:28.639Z,98050.81
2023-02-24T16:54:57.284Z,98039.78
2023-02-24T16:57:25.982Z,98035.63
2023-02-24T16:59:54.613Z,98032.28
2023-02-24T17:02:26.938Z,98037.38
2023-02-24T17:04:55.513Z,98034.13
2023-02-24T17:07:24.241Z,98041.78
2023-02-24T17:09:54.263Z,98029.97
2023-02-24T17:12:23.189Z,98040.31
2023-02-24T17:14:52.217Z,98045.41
2023-02-24T17:17:21.629Z,98043.78
2023-02-24T17:19:50.280Z,98045.69
2023-02-24T17:22:19.021Z,98045.69
2023-02-24T17:24:47.617Z,98054.28
2023-02-24T17:27:17.667Z,98056.84
2023-02-24T17:29:46.287Z,98061.28
2023-02-24T17:32:15.193Z,98066.38
2023-02-24T17:34:43.922Z,98069.88
2023-02-24T17:37:12.555Z,98066.50
2023-02-24T17:39:41.213Z,98076.72
2023-02-24T17:42:10.147Z,98074.28
2023-02-24T17:44:40.287Z,98074.41
2023-02-24T17:47:09.109Z,98081.38
2023-02-24T17:49:37.822Z,98083.94
2023-02-24T17:52:06.728Z,98084.88
2023-02-24T17:54:35.474Z,98087.56
2023-02-24T17:57:04.076Z,98091.03
2023-02-24T17:59:32.778Z,98094.53
2023-02-24T18:02:03.348Z,98098.03
2023-02-24T18:04:32.557Z,98105.78
2023-02-24T18:07:01.130Z,98110.09
2023-02-24T18:09:29.868Z,98103.50
2023-02-24T18:11:58.528Z,98109.44
2023-02-24T18:14:27.662Z,98114.56
2023-02-24T18:16:56.282Z,98124.06
2023-02-24T18:19:26.312Z,98118.97
2023-02-24T18:21:54.942Z,98117.34
2023-02-24T18:24:23.642Z,98131.16
2023-02-24T18:26:52.214Z,98122.69
2023-02-24T18:29:20.899Z,98137.22
2023-02-24T18:31:49.786Z,98134.78
2023-02-24T18:34:18.643Z,98141.75
2023-02-24T18:36:48.674Z,98137.72
2023-02-24T18:39:17.303Z,98137.84
2023-02-24T18:41:46.021Z,98135.56
2023-02-24T18:44:14.630Z,98141.59
2023-02-24T18:46:43.343Z,98138.47
2023-02-24T18:49:12.204Z,98141.16
2023-02-24T18:51:40.973Z,98143.03
2023-02-24T18:54:12.615Z,98143.28
2023-02-24T18:56:41.293Z,98140.06
2023-02-24T18:59:10.120Z,98147.94
2023-02-24T19:01:40.360Z,98154.00
2023-02-24T19:04:10.584Z,98143.09
2023-02-24T19:06:41.587Z,98145.91
2023-02-24T19:09:12.777Z,98150.31
2023-02-24T19:11:43.267Z,98154.75
2023-02-24T19:14:14.019Z,98165.19
2023-02-24T19:16:43.292Z,98159.28
2023-02-24T19:19:14.790Z,98173.91
2023-02-24T19:21:45.506Z,98184.25
2023-02-24T19:24:17.051Z,98181.78
2023-02-24T19:26:47.572Z,98193.88
2023-02-24T19:29:17.184Z,98179.63
2023-02-24T19:31:46.742Z,98183.09
2023-02-24T19:34:16.361Z,98185.78
2023-02-24T19:36:45.011Z,98184.28
2023-02-24T19:39:19.386Z,98174.19
2023-02-24T19:41:49.671Z,98173.63
2023-02-24T19:44:18.641Z,98180.47
2023-02-24T19:46:47.386Z,98184.91
2023-02-24T19:49:16.029Z,98174.81
2023-02-24T19:51:46.628Z,98178.31
2023-02-24T19:54:18.434Z,98169.97
2023-02-24T19:56:47.054Z,98176.94
2023-02-24T19:59:15.719Z,98173.56
2023-02-24T20:01:44.916Z,98177.88
2023-02-24T20:04:13.991Z,98170.34
2023-02-24T20:06:44.055Z,98171.13
2023-02-24T20:09:15.698Z,98167.91
2023-02-24T20:11:46.929Z,98157.72
2023-02-24T20:14:17.900Z,98159.44
2023-02-24T20:16:47.906Z,98159.44
2023-02-24T20:19:18.072Z,98166.28
2023-02-24T20:21:47.474Z,98165.47
2023-02-24T20:24:18.331Z,98163.88
2023-02-24T20:26:50.076Z,98168.13
2023-02-24T20:29:21.811Z,98161.44
2023-02-24T20:31:51.153Z,98162.38
2023-02-24T20:34:20.033Z,98154.72
2023-02-24T20:36:48.682Z,98154.72
2023-02-24T20:39:17.330Z,98160.75
2023-02-24T20:41:47.351Z,98144.78
2023-02-24T20:44:15.988Z,98153.34
2023-02-24T20:46:44.642Z,98148.25
2023-02-24T20:49:14.983Z,98150.91
2023-02-24T20:51:44.841Z,98145.00
2023-02-24T20:54:15.145Z,98150.09
2023-02-24T20:56:45.795Z,98149.28
2023-02-24T20:59:18.235Z,98142.56
2023-02-24T21:01:48.597Z,98141.78
2023-02-24T21:04:20.195Z,98149.41
2023-02-24T21:06:51.497Z,98147.66
2023-02-24T21:09:20.134Z,98147.00
2023-02-24T21:11:48.816Z,98148.72
2023-02-24T21:14:18.968Z,98142.03
2023-02-24T21:16:48.052Z,98132.63
2023-02-24T21:19:17.898Z,98142.03
2023-02-24T21:21:46.775Z,98142.03
2023-02-24T21:24:15.392Z,98142.94
2023-02-24T21:26:44.078Z,98145.50
2023-02-24T21:29:12.832Z,98148.03
2023-02-24T21:31:43.225Z,98144.66
2023-02-24T21:34:12.249Z,98145.72
2023-02-24T21:36:40.948Z,98145.72
2023-02-24T21:39:14.088Z,98150.81
2023-02-24T21:41:43.078Z,98148.53
2023-02-24T21:44:14.316Z,98145.97
2023-02-24T21:46:45.586Z,98144.34
2023-02-24T21:49:14.855Z,98140.88
2023-02-24T21:51:43.733Z,98133.34
2023-02-24T21:54:14.393Z,98141.91
2023-02-24T21:56:43.355Z,98144.59
2023-02-24T21:59:12.319Z,98144.59
2023-02-24T22:01:44.617Z,98159.88
2023-02-24T22:04:16.086Z,98148.06
2023-02-24T22:06:45.760Z,98154.91
2023-02-24T22:09:19.429Z,98163.34
2023-02-24T22:11:50.355Z,98174.50
2023-02-24T22:14:19.464Z,98163.59
2023-02-24T22:16:49.662Z,98165.22
2023-02-24T22:19:19.534Z,98166.97
2023-02-24T22:21:48.187Z,98163.59
2023-02-24T22:24:18.690Z,98166.16
2023-02-24T22:26:47.320Z,98172.19
2023-02-24T22:29:16.086Z,98174.72
2023-02-24T22:31:47.613Z,98171.47
2023-02-24T22:34:19.124Z,98163.81
2023-02-24T22:36:47.698Z,98168.09
2023-02-24T22:39:17.071Z,98168.91
2023-02-24T22:41:47.504Z,98182.47
2023-02-24T22:44:19.334Z,98182.47
2023-02-24T22:46:48.998Z,98174.03
2023-02-24T22:49:19.172Z,98180.03
2023-02-24T22:51:47.790Z,98183.38
2023-02-24T22:54:16.660Z,98190.22
2023-02-24T22:56:45.361Z,98198.66
2023-02-24T22:59:15.948Z,98189.44
2023-02-24T23:01:44.893Z,98196.13
2023-02-24T23:04:18.887Z,98192.78
2023-02-24T23:06:48.367Z,98201.34
2023-02-24T23:09:19.947Z,98189.56
2023-02-24T23:11:48.999Z,98189.56
2023-02-24T23:14:20.700Z,98198.13
2023-02-24T23:16:55.658Z,98201.59
2023-02-24T23:19:25.987Z,98203.34
2023-02-24T23:21:56.482Z,98206.81
2023-02-24T23:24:25.778Z,98207.72
2023-02-24T23:26:57.711Z,98214.59
2023-02-24T23:29:27.979Z,98219.69
2023-02-24T23:31:57.387Z,98227.56
2023-02-24T23:34:27.563Z,98220.00
2023-02-24T23:36:56.201Z,98229.41
2023-02-24T23:39:24.862Z,98222.69
2023-02-24T23:41:57.616Z,98224.56
2023-02-24T23:44:26.807Z,98227.22
2023-02-24T23:46:58.209Z,98217.13
2023-02-24T23:49:39.249Z,98223.16
2023-02-24T23:52:16.190Z,98241.94
2023-02-24T23:54:44.895Z,98245.41
2023-02-24T23:57:13.502Z,98241.94
2023-02-24T23:59:42.348Z,98255.59
